CW9825 Weather Reports


time (UTC)temp
F
wind
direction
speed
knots
gust
knots
rain 1hr
in
rain 24hr
in
rain mn
in
humidity
%
barometer
mb
20210620101040 63 220 1.7 3.5 0.05 0.09 0.09 91 1004.8
20210620100539 63 188 0.0 2.6 0.04 0.08 0.08 91 1004.5
20210620100053 62 187 0.0 0.0 0.02 0.06 0.06 90 1004.4
20210620095538 63 187 0.0 0.0 0.01 0.05 0.05 88 1004.3
20210620095051 63 187 0.0 0.0 0.01 0.05 0.05 87 1004.2
20210620094709 63 187 0.0 0.9 0.00 0.04 0.04 87 1004.1
20210620094036 63 187 0.0 1.7 0.00 0.04 0.04 86 1004.1
20210620093540 63 187 0.0 3.5 0.00 0.04 0.04 86 1003.9
20210620093141 63 187 0.9 3.5 0.00 0.04 0.04 87 1003.5
20210620092543 64 187 1.7 5.2 0.00 0.04 0.04 84 1003.2
20210620092053 64 187 1.7 5.2 0.00 0.04 0.04 84 1003.1
20210620091635 64 173 2.6 7.0 0.01 0.04 0.04 84 1003.2
20210620091034 64 183 3.5 7.8 0.01 0.04 0.04 84 1003.0
20210620090540 64 148 4.3 7.8 0.02 0.04 0.04 82 1002.8
20210620090152 64 148 1.7 6.1 0.02 0.04 0.04 81 1002.8
20210620085548 64 149 2.6 6.1 0.02 0.04 0.04 82 1002.8
20210620085032 64 150 3.5 6.1 0.02 0.04 0.04 81 1003.0
20210620084604 64 191 1.7 5.2 0.02 0.04 0.04 80 1003.1
20210620084043 64 169 1.7 7.0 0.02 0.04 0.04 82 1003.3
20210620083529 63 186 2.6 6.1 0.02 0.04 0.04 84 1003.6
20210620083123 63 190 2.6 6.1 0.02 0.04 0.04 85 1003.8
20210620082528 63 182 3.5 5.2 0.02 0.04 0.04 86 1003.7
20210620082047 64 184 1.7 5.2 0.02 0.04 0.04 86 1003.8
20210620081545 64 184 1.7 4.3 0.01 0.03 0.03 84 1003.9
20210620081024 64 184 1.7 7.8 0.01 0.03 0.03 83 1004.2
20210620080535 65 184 1.7 7.8 0.01 0.02 0.02 81 1004.5
20210620080115 65 187 2.6 5.2 0.01 0.02 0.02 79 1004.6
20210620075523 65 176 3.5 6.1 0.02 0.02 0.02 80 1004.7
20210620075030 64 172 2.6 4.3 0.02 0.02 0.02 82 1004.8
20210620074631 64 183 1.7 3.5 0.02 0.02 0.02 83 1004.8
20210620074025 64 183 1.7 2.6 0.02 0.02 0.02 82 1004.9
20210620073521 64 183 0.0 3.5 0.02 0.02 0.02 82 1004.9
20210620073029 64 183 0.9 3.5 0.02 0.02 0.02 82 1005.0
20210620072522 64 183 0.0 3.5 0.02 0.02 0.02 82 1005.0
20210620072021 64 183 0.0 3.5 0.02 0.02 0.02 83 1005.1
20210620071542 65 183 0.0 3.5 0.02 0.02 0.02 79 1005.2
20210620071019 65 183 1.7 3.5 0.02 0.02 0.02 80 1005.2
20210620070517 66 185 0.0 5.2 0.01 0.01 0.01 75 1005.1
20210620070021 66 185 1.7 6.1 0.00 0.00 0.00 74 1005.0
20210620065517 67 182 2.6 6.1 0.00 0.00 0.00 72 1004.9
20210620065019 67 173 3.5 7.8 0.00 0.00 0.00 70 1004.7
20210620064518 69 175 3.5 7.8 0.00 0.00 0.00 65 1004.7
20210620064019 69 146 4.3 7.8 0.00 0.00 0.00 65 1004.5
20210620063513 69 147 3.5 6.1 0.00 0.00 0.00 65 1004.7
20210620063015 69 147 2.6 6.1 0.00 0.00 0.00 64 1004.7
20210620062513 70 147 2.6 6.1 0.00 0.00 0.00 60 1004.8
20210620062008 71 130 3.5 6.1 0.00 0.00 0.00 57 1004.9
20210620061513 71 171 3.5 5.2 0.00 0.00 0.00 55 1005.0
20210620061012 71 171 0.9 5.2 0.00 0.00 0.00 55 1005.1
20210620060521 71 171 2.6 5.2 0.00 0.00 0.00 56 1005.3
20210620060010 71 160 0.0 2.6 0.00 0.00 0.00 57 1005.4
20210620055505 70 161 0.0 1.7 0.00 0.00 0.00 57 1005.5
20210620055007 71 161 0.0 2.6 0.00 0.00 0.00 56 1005.5
20210620054506 71 161 0.0 2.6 0.00 0.00 0.00 56 1005.6
20210620054009 71 161 0.0 0.9 0.00 0.00 0.00 56 1005.6
20210620053510 70 160 0.0 0.9 0.00 0.00 0.00 58 1005.5
20210620053017 70 161 0.0 2.6 0.00 0.00 0.00 56 1005.6
20210620052511 70 161 0.9 4.3 0.00 0.00 0.00 56 1005.7
20210620052003 70 161 0.9 4.3 0.00 0.00 0.00 56 1005.6
20210620051513 71 161 0.9 4.3 0.00 0.00 0.00 55 1005.6
20210620051002 71 130 0.9 3.5 0.00 0.00 0.00 54 1005.7
20210620050503 70 128 0.0 2.6 0.00 0.00 0.00 55 1005.8
20210620050141 70 90 0.9 2.6 0.00 0.00 0.00 54 1005.8
20210620045600 70 78 0.9 2.6 0.00 0.00 0.00 54 1005.6
20210620045109 70 78 0.0 2.6 0.00 0.00 0.00 56 1005.8
20210620044649 70 78 0.9 2.6 0.00 0.00 0.00 55 1005.8
20210620044117 71 78 0.9 2.6 0.00 0.00 0.00 52 1005.6
20210620043606 72 64 0.9 1.7 0.00 0.00 0.00 51 1005.7
20210620043501 72 64 0.9 2.6 0.00 0.00 0.00 50 1005.7
20210620043205 72 64 0.9 3.5 0.00 0.00 0.00 50 1005.7
20210620042558 73 64 1.7 3.5 0.00 0.00 0.00 48 1005.7
20210620042106 72 68 1.7 3.5 0.00 0.00 0.00 49 1005.6
20210620041846 72 74 0.9 3.5 0.00 0.00 0.00 52 1005.7
20210620041055 71 38 0.9 2.6 0.00 0.00 0.00 55 1005.8
20210620040643 71 38 0.9 2.6 0.00 0.00 0.00 55 1006.0
20210620040208 70 38 0.0 1.7 0.00 0.00 0.00 60 1006.2
20210620035555 71 38 0.0 1.7 0.00 0.00 0.00 59 1006.5
20210620035055 71 38 0.0 3.5 0.00 0.00 0.00 55 1006.4
20210620034636 72 38 0.9 4.3 0.00 0.00 0.00 55 1006.5
20210620034117 72 68 1.7 4.3 0.00 0.00 0.00 57 1006.5
20210620033554 73 207 0.0 4.3 0.00 0.00 0.00 52 1006.6
20210620033153 72 207 0.9 4.3 0.00 0.00 0.00 50 1006.5
20210620032554 72 248 0.9 3.5 0.00 0.00 0.00 53 1006.5
20210620032108 73 248 0.0 1.7 0.00 0.00 0.00 50 1006.3
20210620031645 73 248 0.0 1.7 0.00 0.00 0.00 50 1006.3
20210620031112 72 248 0.0 0.9 0.00 0.00 0.00 50 1006.2
20210620030604 72 248 0.0 0.0 0.00 0.00 0.00 50 1006.1
20210620030147 72 248 0.0 0.0 0.00 0.00 0.00 52 1006.2
20210620025553 72 248 0.0 0.9 0.00 0.00 0.00 52 1006.2
20210620025108 73 248 0.0 0.9 0.00 0.00 0.00 50 1006.2
20210620024633 72 248 0.0 0.9 0.00 0.00 0.00 50 1006.2
20210620024052 73 248 0.0 0.0 0.00 0.00 0.00 50 1006.2
20210620023610 73 248 0.0 0.9 0.00 0.00 0.00 49 1006.1
20210620023234 73 248 0.0 0.9 0.00 0.00 0.00 49 1006.2
20210620022553 73 248 0.0 0.9 0.00 0.00 0.00 49 1006.1
20210620022052 73 248 0.0 0.9 0.00 0.00 0.00 48 1006.1
20210620021638 74 248 0.0 0.9 0.00 0.00 0.00 48 1006.1
20210620021103 74 248 0.0 0.9 0.00 0.00 0.00 46 1006.1
20210620020600 75 248 0.0 1.7 0.00 0.00 0.00 44 1006.1
20210620020123 75 248 0.0 2.6 0.00 0.00 0.00 44 1006.0
20210620015551 76 248 0.0 2.6 0.00 0.00 0.00 43 1006.0
20210620015051 76 248 0.0 3.5 0.00 0.00 0.00 42 1006.1
20210620014653 77 248 0.0 3.5 0.00 0.00 0.00 43 1006.0
20210620014050 78 248 0.9 6.1 0.00 0.00 0.00 40 1006.0
20210620013549 78 248 2.6 6.1 0.00 0.00 0.00 39 1006.1
20210620013151 78 271 0.9 6.1 0.00 0.00 0.00 41 1006.1
20210620012550 78 205 0.9 6.1 0.00 0.00 0.00 41 1006.2
20210620012100 78 239 0.0 4.3 0.00 0.00 0.00 41 1006.1
20210620011800 78 251 0.0 5.2 0.00 0.00 0.00 40 1006.1
20210620011100 79 259 0.0 6.1 0.00 0.00 0.00 40 1006.2
20210620010611 79 259 2.6 6.1 0.00 0.00 0.00 39 1006.2
20210620010139 79 255 2.6 6.1 0.00 0.00 0.00 39 1006.2
20210620005603 79 259 1.7 7.0 0.00 0.00 0.00 38 1006.2
20210620005105 79 271 2.6 7.0 0.00 0.00 0.00 38 1006.3
20210620004620 79 274 1.7 7.0 0.00 0.00 0.00 38 1006.4
20210620004057 79 275 0.9 7.0 0.00 0.00 0.00 39 1006.3
20210620003546 79 278 1.7 7.0 0.00 0.00 0.00 37 1006.3
20210620003117 80 280 0.9 7.8 0.00 0.00 0.00 39 1006.3
20210620002545 80 281 3.5 7.8 0.00 0.00 0.00 37 1006.5
20210620002045 80 263 3.5 7.8 0.00 0.00 0.00 38 1006.5
20210620001551 81 295 2.6 7.8 0.00 0.00 0.00 38 1006.4
20210620001044 81 279 3.5 8.7 0.00 0.00 0.00 38 1006.4
20210620000545 81 249 2.6 8.7 0.00 0.00 0.00 40 1006.6
20210620000157 81 258 2.6 8.7 0.00 0.00 0.00 38 1006.7
20210619235543 81 264 4.3 10.4 0.00 0.00 0.00 38 1006.8
20210619235041 81 256 3.5 10.4 0.00 0.00 0.00 38 1006.7
20210619234632 81 255 0.9 7.0 0.00 0.00 0.00 40 1006.7
20210619234112 81 250 0.9 10.4 0.00 0.00 0.00 39 1006.7
20210619233540 80 229 1.7 10.4 0.00 0.00 0.00 40 1006.7
20210619233107 80 258 2.6 10.4 0.00 0.00 0.00 39 1006.8
20210619232545 80 252 4.3 9.6 0.00 0.00 0.00 38 1006.8
20210619232102 81 272 4.3 9.6 0.00 0.00 0.00 38 1006.8
20210619231703 81 276 0.0 10.4 0.00 0.00 0.00 38 1006.8
20210619231038 80 271 4.3 10.4 0.00 0.00 0.00 39 1006.9
20210619230542 80 304 2.6 8.7 0.00 0.00 0.00 41 1006.9
20210619230106 79 256 0.9 7.8 0.00 0.00 0.00 45 1007.0
20210619225103 80 235 4.3 10.4 0.00 0.00 0.00 41 1007.1
20210619224704 79 183 1.7 6.1 0.00 0.00 0.00 44 1007.1
20210619224034 78 182 1.7 6.1 0.00 0.00 0.00 43 1007.1
20210619223533 78 198 0.9 3.5 0.00 0.00 0.00 46 1007.2
20210619223123 79 284 0.0 4.3 0.00 0.00 0.00 40 1007.2
20210619222533 79 308 0.9 4.3 0.00 0.00 0.00 43 1007.2
20210619222039 79 306 0.9 8.7 0.00 0.00 0.00 40 1007.3
20210619221532 80 271 3.5 10.4 0.00 0.00 0.00 41 1007.4
20210619221037 81 269 1.7 9.6 0.00 0.00 0.00 41 1007.4
20210619220556 80 305 2.6 9.6 0.00 0.00 0.00 40 1007.5
20210619220036 80 304 4.3 7.8 0.00 0.00 0.00 39 1007.5
20210619215029 80 254 2.6 6.1 0.00 0.00 0.00 42 1007.6
20210619214540 80 244 1.7 7.8 0.00 0.00 0.00 43 1007.6
20210619214027 79 254 3.5 8.7 0.00 0.00 0.00 41 1007.7
20210619213531 80 285 3.5 8.7 0.00 0.00 0.00 42 1007.8
20210619213041 80 228 1.7 7.8 0.00 0.00 0.00 44 1007.8
20210619212525 79 263 1.7 10.4 0.00 0.00 0.00 43 1008.0
20210619212034 80 236 4.3 10.4 0.00 0.00 0.00 40 1008.1
20210619211603 79 153 1.7 4.3 0.00 0.00 0.00 42 1008.0
20210619211023 78 281 0.0 7.8 0.00 0.00 0.00 42 1008.1
20210619210528 77 293 2.6 7.8 0.00 0.00 0.00 47 1008.1
20210619210047 79 215 2.6 7.0 0.00 0.00 0.00 42 1008.2
20210619205522 78 219 0.9 7.0 0.00 0.00 0.00 46 1008.2
20210619205021 79 243 3.5 7.0 0.00 0.00 0.00 42 1008.2
20210619204533 78 290 2.6 9.6 0.00 0.00 0.00 42 1008.3
20210619204027 79 269 5.2 9.6 0.00 0.00 0.00 43 1008.5
20210619203524 78 264 2.6 6.1 0.00 0.00 0.00 42 1008.4
20210619203058 78 120 1.7 6.1 0.00 0.00 0.00 45 1008.5
20210619202517 79 236 2.6 7.0 0.00 0.00 0.00 42 1008.7
20210619202016 78 243 2.6 7.0 0.00 0.00 0.00 45 1008.7
20210619201539 77 309 0.9 6.1 0.00 0.00 0.00 44 1008.6
20210619201024 76 268 0.0 8.7 0.00 0.00 0.00 43 1008.7
20210619200518 77 275 3.5 8.7 0.00 0.00 0.00 44 1008.9
20210619200034 77 297 2.6 8.7 0.00 0.00 0.00 45 1009.0
20210619195518 77 246 4.3 8.7 0.00 0.00 0.00 44 1009.0
20210619195016 78 232 3.5 7.8 0.00 0.00 0.00 46 1009.1
20210619194515 77 266 0.9 6.1 0.00 0.00 0.00 48 1009.2
20210619194011 75 184 2.6 6.1 0.00 0.00 0.00 48 1009.3
20210619193509 76 215 1.7 6.1 0.00 0.00 0.00 48 1009.3
20210619193031 76 175 2.6 6.1 0.00 0.00 0.00 46 1009.4
20210619192508 76 177 1.7 4.3 0.00 0.00 0.00 48 1009.5
20210619192007 75 292 2.6 4.3 0.00 0.00 0.00 45 1009.6
20210619191509 73 333 0.9 7.8 0.00 0.00 0.00 47 1009.7
20210619191009 74 312 2.6 7.8 0.00 0.00 0.00 45 1009.8
20210619190504 75 269 1.7 7.0 0.00 0.00 0.00 48 1010.0
20210619190006 74 228 1.7 7.0 0.00 0.00 0.00 44 1009.9
20210619185503 74 249 0.0 12.2 0.00 0.00 0.00 49 1010.0
20210619185002 74 257 4.3 12.2 0.00 0.00 0.00 49 1010.0
20210619184510 74 192 1.7 7.8 0.00 0.00 0.00 46 1010.2
20210619183604 74 254 1.7 7.8 0.00 0.00 0.00 48 1010.6
20210619183138 72 12 0.9 5.2 0.00 0.00 0.00 48 1010.6
20210619182607 74 24 1.7 5.2 0.00 0.00 0.00 47 1010.8
20210619182101 72 271 1.7 5.2 0.00 0.00 0.00 49 1011.0
20210619181817 73 23 2.6 6.1 0.00 0.00 0.00 47 1011.0
20210619181057 72 254 1.7 8.7 0.00 0.00 0.00 48 1011.1
20210619180555 72 255 3.5 8.7 0.00 0.00 0.00 48 1011.2
20210619180157 73 294 3.5 7.8 0.00 0.00 0.00 48 1011.3
20210619175606 73 246 3.5 7.8 0.00 0.00 0.00 50 1011.3
20210619175106 73 173 1.7 5.2 0.00 0.00 0.00 52 1011.4
20210619174718 72 340 0.9 6.1 0.00 0.00 0.00 49 1011.5
20210619174108 72 323 2.6 6.1 0.00 0.00 0.00 49 1011.4
20210619173609 72 318 1.7 4.3 0.00 0.00 0.00 51 1011.4
20210619173103 72 208 0.9 7.0 0.00 0.00 0.00 51 1011.5
20210619172549 71 247 0.9 7.0 0.00 0.00 0.00 51 1011.6
20210619172046 71 284 2.6 7.0 0.00 0.00 0.00 51 1011.7
20210619171632 71 247 2.6 8.7 0.00 0.00 0.00 50 1011.6
20210619171045 71 246 3.5 8.7 0.00 0.00 0.00 49 1011.7
20210619170544 71 261 0.9 9.6 0.00 0.00 0.00 52 1011.6
20210619170111 71 243 3.5 9.6 0.00 0.00 0.00 52 1011.7
20210619165542 70 301 1.7 4.3 0.00 0.00 0.00 53 1011.7
20210619165101 71 267 1.7 4.3 0.00 0.00 0.00 53 1011.6
20210619164610 70 229 0.9 3.5 0.00 0.00 0.00 55 1011.8
20210619164052 69 246 0.9 3.5 0.00 0.00 0.00 53 1011.8
20210619163537 69 227 0.9 5.2 0.00 0.00 0.00 53 1011.9
20210619163045 69 5 0.9 5.2 0.00 0.00 0.00 51 1011.9
20210619162537 70 360 2.6 5.2 0.00 0.00 0.00 51 1012.0
20210619162042 70 355 2.6 8.7 0.00 0.00 0.00 53 1012.1
20210619161604 70 272 1.7 8.7 0.00 0.00 0.00 55 1012.1
20210619161052 69 296 1.7 6.1 0.00 0.00 0.00 53 1012.1
20210619160529 69 269 2.6 6.1 0.00 0.00 0.00 54 1012.2
20210619160055 68 268 1.7 7.8 0.00 0.00 0.00 54 1012.3
20210619155531 68 274 2.6 7.8 0.00 0.00 0.00 54 1012.3
20210619155034 67 298 0.9 6.1 0.00 0.00 0.00 55 1012.3
20210619154527 67 268 0.9 5.2 0.00 0.00 0.00 54 1012.5
20210619154027 68 188 2.6 6.1 0.00 0.00 0.00 56 1012.6
20210619153521 66 293 0.9 7.0 0.00 0.00 0.00 56 1012.6
20210619153020 67 256 1.7 7.0 0.00 0.00 0.00 55 1012.7
20210619152529 66 65 0.9 3.5 0.00 0.00 0.00 57 1012.7
20210619152023 66 65 0.9 3.5 0.00 0.00 0.00 58 1012.8
20210619151523 65 85 0.0 6.1 0.00 0.00 0.00 58 1012.8
20210619151014 66 89 2.6 6.1 0.00 0.00 0.00 57 1012.8
20210619150514 65 147 1.7 5.2 0.00 0.00 0.00 59 1012.8
20210619150035 64 210 0.9 4.3 0.00 0.00 0.00 60 1012.9
20210619145511 64 210 1.7 4.3 0.00 0.00 0.00 58 1013.0
20210619145010 64 198 0.9 3.5 0.00 0.00 0.00 61 1013.0
20210619144517 64 196 0.9 3.5 0.00 0.00 0.00 60 1013.1
20210619144009 63 165 0.9 3.5 0.00 0.00 0.00 58 1013.2
20210619143510 63 87 0.0 3.5 0.00 0.00 0.00 60 1013.2
20210619143017 63 135 1.7 3.5 0.00 0.00 0.00 59 1013.1
20210619142507 63 132 0.9 5.2 0.00 0.00 0.00 60 1013.1
20210619142007 63 132 1.7 5.2 0.00 0.00 0.00 58 1013.2
20210619141512 63 59 1.7 3.5 0.00 0.00 0.00 60 1013.2
20210619141006 63 130 2.6 3.5 0.00 0.00 0.00 60 1013.2
20210619140508 62 111 0.9 2.6 0.00 0.00 0.00 64 1013.3
20210619140031 62 111 0.0 5.2 0.00 0.00 0.00 63 1013.4
20210619135503 62 111 1.7 5.2 0.00 0.00 0.00 63 1013.4
20210619135006 61 123 0.0 3.5 0.00 0.00 0.00 66 1013.3
20210619134511 61 123 0.9 3.5 0.00 0.00 0.00 66 1013.3
20210619134005 61 336 0.9 3.5 0.00 0.00 0.00 67 1013.3
20210619133559 61 333 0.0 3.5 0.00 0.00 0.00 68 1013.1
20210619133222 60 333 1.7 3.5 0.00 0.00 0.00 70 1013.1
20210619132613 60 333 0.9 3.5 0.00 0.00 0.00 69 1013.2
20210619132108 60 333 1.7 3.5 0.00 0.00 0.00 67 1013.2
20210619131647 59 329 0.0 0.0 0.00 0.00 0.00 75 1013.2
20210619131059 59 329 0.0 0.0 0.00 0.00 0.00 75 1013.1
20210619130557 58 329 0.0 0.0 0.00 0.00 0.00 76 1013.0
20210619130143 58 329 0.0 0.0 0.00 0.00 0.00 77 1013.1
20210619125633 57 329 0.0 0.0 0.00 0.00 0.00 77 1013.0
20210619125057 57 329 0.0 0.0 0.00 0.00 0.00 79 1013.0
20210619124713 57 329 0.0 0.0 0.00 0.00 0.00 79 1013.0
20210619124057 57 329 0.0 0.0 0.00 0.00 0.00 81 1013.0
20210619123559 56 329 0.0 2.6 0.00 0.00 0.00 82 1013.0
20210619123137 56 329 0.0 2.6 0.00 0.00 0.00 82 1013.0
20210619122556 55 329 0.0 3.5 0.00 0.00 0.00 83 1013.0
20210619122056 55 329 1.7 3.5 0.00 0.00 0.00 83 1013.0
20210619121647 55 329 0.0 3.5 0.00 0.00 0.00 83 1012.8
20210619121109 55 329 0.9 3.5 0.00 0.00 0.00 83 1012.7
20210619120636 55 329 0.9 3.5 0.00 0.00 0.00 82 1012.6
20210619120124 55 329 0.9 3.5 0.00 0.00 0.00 83 1012.6
20210619115602 54 329 1.7 3.5 0.00 0.00 0.00 84 1012.8
20210619115055 54 329 0.0 2.6 0.00 0.00 0.00 84 1012.8
20210619114613 54 329 0.9 2.6 0.00 0.00 0.00 84 1012.9
20210619114052 54 329 0.0 1.7 0.00 0.00 0.00 85 1012.9
20210619113550 53 329 0.0 0.0 0.00 0.00 0.00 84 1012.9
20210619113103 53 329 0.0 0.0 0.00 0.00 0.00 84 1013.0
20210619112549 53 329 0.0 0.0 0.00 0.00 0.00 85 1013.0
20210619112049 52 329 0.0 0.0 0.00 0.00 0.00 85 1013.0
20210619111604 52 329 0.0 0.0 0.00 0.00 0.00 86 1012.9
20210619111048 52 329 0.0 0.0 0.00 0.00 0.00 86 1012.8
20210619110547 52 329 0.0 0.0 0.00 0.00 0.00 86 1012.7
20210619110159 52 329 0.0 0.0 0.00 0.00 0.00 86 1012.7
20210619105545 52 329 0.0 0.0 0.00 0.00 0.00 86 1012.6
20210619105044 52 329 0.0 0.0 0.00 0.00 0.00 85 1012.7
20210619104614 53 329 0.0 0.0 0.00 0.00 0.00 85 1012.5
20210619104051 53 329 0.0 0.0 0.00 0.00 0.00 84 1012.6
20210619103547 53 328 0.0 3.5 0.00 0.00 0.00 84 1012.7
20210619103053 53 329 0.0 3.5 0.00 0.00 0.00 84 1012.9
20210619102541 53 328 1.7 3.5 0.00 0.00 0.00 84 1012.9
20210619102051 53 328 0.9 3.5 0.00 0.00 0.00 84 1013.1
20210619101557 53 328 0.0 2.6 0.00 0.00 0.00 84 1013.1